createdAt,value
2022-12-27T00:00:47.834Z,100.00
2022-12-27T00:03:17.725Z,100.00
2022-12-27T00:05:48.815Z,100.00
2022-12-27T00:08:18.590Z,100.00
2022-12-27T00:10:48.041Z,100.00
2022-12-27T00:13:17.594Z,100.00
2022-12-27T00:15:46.945Z,100.00
2022-12-27T00:18:16.375Z,100.00
2022-12-27T00:20:45.836Z,100.00
2022-12-27T00:23:15.314Z,100.00
2022-12-27T00:25:44.752Z,100.00
2022-12-27T00:28:14.164Z,100.00
2022-12-27T00:30:44.071Z,100.00
2022-12-27T00:33:13.593Z,100.00
2022-12-27T00:35:43.096Z,100.00
2022-12-27T00:38:12.563Z,100.00
2022-12-27T00:40:42.775Z,100.00
2022-12-27T00:43:12.320Z,100.00
2022-12-27T00:45:44.563Z,100.00
2022-12-27T00:48:14.322Z,100.00
2022-12-27T00:50:45.697Z,100.00
2022-12-27T00:53:15.423Z,100.00
2022-12-27T00:55:46.121Z,100.00
2022-12-27T00:58:15.610Z,100.00
2022-12-27T01:00:45.158Z,100.00
2022-12-27T01:03:14.793Z,100.00
2022-12-27T01:05:44.595Z,100.00
2022-12-27T01:08:14.132Z,100.00
2022-12-27T01:10:43.808Z,100.00
2022-12-27T01:13:13.330Z,100.00
2022-12-27T01:15:43.440Z,100.00
2022-12-27T01:18:12.954Z,100.00
2022-12-27T01:20:42.411Z,100.00
2022-12-27T01:23:11.940Z,100.00
2022-12-27T01:25:41.386Z,100.00
2022-12-27T01:28:11.097Z,100.00
2022-12-27T01:30:40.630Z,100.00
2022-12-27T01:33:10.188Z,100.00
2022-12-27T01:35:39.624Z,100.00
2022-12-27T01:38:08.978Z,100.00
2022-12-27T01:40:39.419Z,100.00
2022-12-27T01:43:18.654Z,100.00
2022-12-27T01:45:49.166Z,100.00
2022-12-27T01:48:25.264Z,100.00
2022-12-27T01:51:03.113Z,100.00
2022-12-27T01:53:39.264Z,100.00
2022-12-27T01:56:24.790Z,100.00
2022-12-27T01:59:00.722Z,100.00
2022-12-27T02:01:44.543Z,100.00
2022-12-27T02:04:23.256Z,100.00
2022-12-27T02:06:53.363Z,100.00
2022-12-27T02:09:46.363Z,100.00
2022-12-27T02:12:16.794Z,100.00
2022-12-27T02:14:49.419Z,100.00
2022-12-27T02:17:29.454Z,100.00
2022-12-27T02:20:18.606Z,100.00
2022-12-27T02:23:18.485Z,100.00
2022-12-27T02:27:06.723Z,100.00
2022-12-27T02:29:52.880Z,100.00
2022-12-27T02:33:13.986Z,100.00
2022-12-27T02:35:54.739Z,100.00
2022-12-27T02:38:34.715Z,100.00
2022-12-27T02:41:27.332Z,100.00
2022-12-27T02:44:16.742Z,100.00
2022-12-27T02:47:06.986Z,100.00
2022-12-27T02:50:01.581Z,100.00
2022-12-27T02:53:04.098Z,100.00
2022-12-27T02:56:36.291Z,100.00
2022-12-27T03:00:12.030Z,100.00
2022-12-27T03:03:44.437Z,100.00
2022-12-27T03:07:08.700Z,100.00
2022-12-27T03:10:37.940Z,100.00
2022-12-27T03:13:59.075Z,100.00
2022-12-27T03:16:58.072Z,100.00
2022-12-27T03:20:04.707Z,100.00
2022-12-27T03:22:56.040Z,100.00
2022-12-27T03:25:29.699Z,100.00
2022-12-27T03:28:45.901Z,100.00
2022-12-27T03:31:47.152Z,100.00
2022-12-27T03:34:32.585Z,100.00
2022-12-27T03:37:28.401Z,100.00
2022-12-27T03:40:29.194Z,100.00
2022-12-27T03:43:14.921Z,100.00
2022-12-27T03:46:25.586Z,100.00
2022-12-27T03:49:11.755Z,100.00
2022-12-27T03:51:57.268Z,100.00
2022-12-27T03:54:41.464Z,100.00
2022-12-27T03:57:25.796Z,100.00
2022-12-27T03:59:55.946Z,100.00
2022-12-27T04:02:25.736Z,100.00
2022-12-27T04:04:55.452Z,100.00
2022-12-27T04:07:24.987Z,100.00
2022-12-27T04:10:13.111Z,100.00
2022-12-27T04:13:00.854Z,100.00
2022-12-27T04:15:50.746Z,100.00
2022-12-27T04:18:38.788Z,100.00
2022-12-27T04:21:26.915Z,100.00
2022-12-27T04:24:14.928Z,100.00
2022-12-27T04:27:03.027Z,100.00
2022-12-27T04:29:51.087Z,100.00
2022-12-27T04:32:38.887Z,100.00
2022-12-27T04:35:08.512Z,100.00
2022-12-27T04:37:38.019Z,100.00
2022-12-27T04:40:27.360Z,100.00
2022-12-27T04:43:15.247Z,100.00
2022-12-27T04:46:03.307Z,100.00
2022-12-27T04:48:51.416Z,100.00
2022-12-27T04:51:39.424Z,100.00
2022-12-27T04:54:40.693Z,100.00
2022-12-27T04:57:10.212Z,100.00
2022-12-27T04:59:58.012Z,100.00
2022-12-27T05:02:27.638Z,100.00
2022-12-27T05:04:58.261Z,100.00
2022-12-27T05:07:46.359Z,100.00
2022-12-27T05:10:34.536Z,100.00
2022-12-27T05:13:22.861Z,100.00
2022-12-27T05:15:52.425Z,100.00
2022-12-27T05:18:22.495Z,100.00
2022-12-27T05:20:51.874Z,100.00
2022-12-27T05:23:39.801Z,100.00
2022-12-27T05:26:09.260Z,100.00
2022-12-27T05:28:38.723Z,100.00
2022-12-27T05:31:07.537Z,100.00
2022-12-27T05:33:37.016Z,100.00
2022-12-27T05:36:07.710Z,100.00
2022-12-27T05:38:37.422Z,100.00
2022-12-27T05:41:07.966Z,100.00
2022-12-27T05:43:37.556Z,100.00
2022-12-27T05:46:12.968Z,100.00
2022-12-27T05:48:43.364Z,100.00
2022-12-27T05:51:19.254Z,100.00
2022-12-27T05:53:49.805Z,100.00
2022-12-27T05:56:22.510Z,100.00
2022-12-27T05:58:54.759Z,100.00
2022-12-27T06:01:23.761Z,100.00
2022-12-27T06:03:53.209Z,100.00
2022-12-27T06:06:22.723Z,100.00
2022-12-27T06:08:52.232Z,100.00
2022-12-27T06:11:21.770Z,100.00
2022-12-27T06:13:55.038Z,100.00
2022-12-27T06:16:24.718Z,100.00
2022-12-27T06:18:54.364Z,100.00
2022-12-27T06:21:23.927Z,100.00
2022-12-27T06:23:53.432Z,100.00
2022-12-27T06:26:25.977Z,100.00
2022-12-27T06:28:57.834Z,100.00
2022-12-27T06:31:28.497Z,100.00
2022-12-27T06:33:58.417Z,100.00
2022-12-27T06:36:29.653Z,100.00
2022-12-27T06:39:00.869Z,100.00
2022-12-27T06:41:29.525Z,100.00
2022-12-27T06:43:59.975Z,100.00
2022-12-27T06:46:27.753Z,100.00
2022-12-27T06:48:56.500Z,100.00
2022-12-27T06:51:25.945Z,100.00
2022-12-27T06:53:54.677Z,100.00
2022-12-27T06:56:24.409Z,100.00
2022-12-27T06:58:54.048Z,100.00
2022-12-27T07:01:27.598Z,100.00
2022-12-27T07:04:00.291Z,100.00
2022-12-27T07:06:32.308Z,100.00
2022-12-27T07:09:02.104Z,100.00
2022-12-27T07:11:36.133Z,100.00
2022-12-27T07:14:09.712Z,100.00
2022-12-27T07:16:38.551Z,100.00
2022-12-27T07:19:09.668Z,100.00
2022-12-27T07:21:38.498Z,100.00
2022-12-27T07:24:08.267Z,100.00
2022-12-27T07:26:36.864Z,100.00
2022-12-27T07:29:05.722Z,100.00
2022-12-27T07:31:34.700Z,100.00
2022-12-27T07:34:04.729Z,100.00
2022-12-27T07:36:39.472Z,100.00
2022-12-27T07:39:09.942Z,100.00
2022-12-27T07:41:38.751Z,100.00
2022-12-27T07:44:08.057Z,100.00
2022-12-27T07:46:37.201Z,100.00
2022-12-27T07:49:09.953Z,100.00
2022-12-27T07:51:42.959Z,100.00
2022-12-27T07:54:12.352Z,100.00
2022-12-27T07:56:40.961Z,100.00
2022-12-27T07:59:13.429Z,100.00
2022-12-27T08:02:00.931Z,100.00
2022-12-27T08:04:29.903Z,100.00
2022-12-27T08:07:14.355Z,100.00
2022-12-27T08:09:45.757Z,100.00
2022-12-27T08:12:15.212Z,100.00
2022-12-27T08:14:44.776Z,99.80
2022-12-27T08:17:24.293Z,99.27
2022-12-27T08:19:53.264Z,98.73
2022-12-27T08:22:22.801Z,97.55
2022-12-27T08:24:51.260Z,96.69
2022-12-27T08:27:25.603Z,96.25
2022-12-27T08:29:54.068Z,95.07
2022-12-27T08:32:21.713Z,94.52
2022-12-27T08:34:49.394Z,93.06
2022-12-27T08:37:17.147Z,91.78
2022-12-27T08:39:48.384Z,91.88
2022-12-27T08:42:16.047Z,91.44
2022-12-27T08:44:44.223Z,90.99
2022-12-27T08:47:11.912Z,91.17
2022-12-27T08:49:41.462Z,89.84
2022-12-27T08:52:09.118Z,89.43
2022-12-27T08:54:36.830Z,89.81
2022-12-27T08:57:05.517Z,90.38
2022-12-27T08:59:33.968Z,88.79
2022-12-27T09:02:02.928Z,88.81
2022-12-27T09:04:31.470Z,88.11
2022-12-27T09:06:59.201Z,87.45
2022-12-27T09:09:27.658Z,87.93
2022-12-27T09:11:57.242Z,88.06
2022-12-27T09:14:25.339Z,87.82
2022-12-27T09:16:53.793Z,88.01
2022-12-27T09:19:21.424Z,85.92
2022-12-27T09:21:49.894Z,85.36
2022-12-27T09:24:17.574Z,85.57
2022-12-27T09:26:46.036Z,84.99
2022-12-27T09:29:14.500Z,83.82
2022-12-27T09:31:42.129Z,84.01
2022-12-27T09:34:11.988Z,83.30
2022-12-27T09:36:40.948Z,83.51
2022-12-27T09:39:10.368Z,85.58
2022-12-27T09:42:47.722Z,83.96
2022-12-27T09:45:32.135Z,84.15
2022-12-27T09:48:10.667Z,83.81
2022-12-27T09:50:55.760Z,83.94
2022-12-27T09:53:48.211Z,83.87
2022-12-27T09:56:54.004Z,83.74
2022-12-27T09:59:41.618Z,83.49
2022-12-27T10:02:26.551Z,84.58
2022-12-27T10:08:25.733Z,83.11
2022-12-27T10:11:36.173Z,82.78
2022-12-27T10:14:50.640Z,81.69
2022-12-27T10:18:01.589Z,81.07
2022-12-27T10:21:16.801Z,78.95
2022-12-27T10:24:00.952Z,79.98
2022-12-27T10:26:28.986Z,79.35
2022-12-27T10:29:22.852Z,77.38
2022-12-27T10:31:50.998Z,74.30
2022-12-27T10:34:27.158Z,72.16
2022-12-27T10:36:58.031Z,71.02
2022-12-27T10:39:32.442Z,68.19
2022-12-27T10:42:42.029Z,66.73
2022-12-27T10:45:37.128Z,65.62
2022-12-27T10:48:36.415Z,64.40
2022-12-27T10:51:15.531Z,61.77
2022-12-27T10:53:46.118Z,61.71
2022-12-27T10:56:32.507Z,63.27
2022-12-27T10:59:20.411Z,61.61
2022-12-27T11:02:03.082Z,60.01
2022-12-27T11:04:32.322Z,62.59
2022-12-27T11:07:00.068Z,61.98
2022-12-27T11:09:50.265Z,61.41
2022-12-27T11:12:33.065Z,61.06
2022-12-27T11:15:11.864Z,62.37
2022-12-27T11:17:52.284Z,62.12
2022-12-27T11:20:51.894Z,62.59
2022-12-27T11:23:22.923Z,61.63
2022-12-27T11:26:04.671Z,61.83
2022-12-27T11:28:52.971Z,61.56
2022-12-27T11:31:36.493Z,62.16
2022-12-27T11:34:30.389Z,60.31
2022-12-27T11:37:20.285Z,59.56
2022-12-27T11:39:55.922Z,60.25
2022-12-27T11:42:45.738Z,60.23
2022-12-27T11:45:48.454Z,59.75
2022-12-27T11:48:41.420Z,61.00
2022-12-27T11:51:49.022Z,60.06
2022-12-27T11:55:21.677Z,60.15
2022-12-27T11:58:46.284Z,60.03
2022-12-27T12:02:00.703Z,60.05
2022-12-27T12:04:55.477Z,59.39
2022-12-27T12:08:15.621Z,59.54
2022-12-27T12:11:41.319Z,60.15
2022-12-27T12:14:45.551Z,59.96
2022-12-27T12:17:52.279Z,60.76
2022-12-27T12:21:19.259Z,61.16
2022-12-27T12:24:34.028Z,60.55
2022-12-27T12:27:53.442Z,60.51
2022-12-27T12:31:20.432Z,61.54
2022-12-27T12:34:08.943Z,61.42
2022-12-27T12:37:16.092Z,60.44
2022-12-27T12:40:13.695Z,61.53
2022-12-27T12:43:12.335Z,61.39
2022-12-27T12:46:37.926Z,61.29
2022-12-27T12:49:14.491Z,61.20
2022-12-27T12:52:18.932Z,60.46
2022-12-27T12:55:22.033Z,60.71
2022-12-27T12:58:24.685Z,60.75
2022-12-27T13:01:19.672Z,61.28
2022-12-27T13:04:27.307Z,60.79
2022-12-27T13:07:17.085Z,61.13
2022-12-27T13:10:15.441Z,61.13
2022-12-27T13:13:17.907Z,60.80
2022-12-27T13:16:34.793Z,60.50
2022-12-27T13:20:04.051Z,59.05
2022-12-27T13:23:03.386Z,59.58
2022-12-27T13:26:12.545Z,59.97
2022-12-27T13:29:42.451Z,60.47
2022-12-27T13:32:37.685Z,60.50
2022-12-27T13:35:50.780Z,60.47
2022-12-27T13:38:54.515Z,60.29
2022-12-27T13:42:01.932Z,59.99
2022-12-27T13:45:02.119Z,59.41
2022-12-27T13:47:46.512Z,59.85
2022-12-27T13:50:57.039Z,60.41
2022-12-27T13:54:26.523Z,59.38
2022-12-27T13:57:27.153Z,60.13
2022-12-27T14:00:22.454Z,61.21
2022-12-27T14:03:27.432Z,59.43
2022-12-27T14:06:36.221Z,58.83
2022-12-27T14:09:59.727Z,60.21
2022-12-27T14:12:59.434Z,60.13
2022-12-27T14:15:42.949Z,60.46
2022-12-27T14:18:47.353Z,61.29
2022-12-27T14:22:30.337Z,61.27
2022-12-27T14:25:42.476Z,61.25
2022-12-27T14:28:19.044Z,62.75
2022-12-27T14:31:17.129Z,62.48
2022-12-27T14:34:16.823Z,62.11
2022-12-27T14:37:18.053Z,62.35
2022-12-27T14:40:06.552Z,63.12
2022-12-27T14:43:41.790Z,64.12
2022-12-27T14:46:57.524Z,63.53
2022-12-27T14:49:51.954Z,63.99
2022-12-27T14:53:04.341Z,64.16
2022-12-27T14:56:15.268Z,62.67
2022-12-27T14:59:17.948Z,64.93
2022-12-27T15:02:21.369Z,64.21
2022-12-27T15:05:36.698Z,65.85
2022-12-27T15:08:29.676Z,66.75
2022-12-27T15:11:52.033Z,66.84
2022-12-27T15:14:54.148Z,67.31
2022-12-27T15:18:22.992Z,67.00
2022-12-27T15:21:29.048Z,67.59
2022-12-27T15:24:43.757Z,68.25
2022-12-27T15:27:45.999Z,66.26
2022-12-27T15:30:20.661Z,67.09
2022-12-27T15:33:18.553Z,67.93
2022-12-27T15:36:03.601Z,67.25
2022-12-27T15:38:55.374Z,68.92
2022-12-27T15:41:50.676Z,69.52
2022-12-27T15:44:50.699Z,72.05
2022-12-27T15:47:24.850Z,71.42
2022-12-27T15:50:27.288Z,72.18
2022-12-27T15:53:35.191Z,72.95
2022-12-27T15:56:12.437Z,74.17
2022-12-27T15:58:42.690Z,74.04
2022-12-27T16:01:25.678Z,75.03
2022-12-27T16:03:58.735Z,74.37
2022-12-27T16:06:34.179Z,75.24
2022-12-27T16:09:24.397Z,75.51
2022-12-27T16:12:13.797Z,75.38
2022-12-27T16:14:44.949Z,75.95
2022-12-27T16:17:43.551Z,76.13
2022-12-27T16:20:16.451Z,76.69
2022-12-27T16:23:02.850Z,75.92
2022-12-27T16:25:42.908Z,75.21
2022-12-27T16:28:24.031Z,74.64
2022-12-27T16:31:00.568Z,75.14
2022-12-27T16:33:39.261Z,74.51
2022-12-27T16:36:21.614Z,74.21
2022-12-27T16:39:11.856Z,74.31
2022-12-27T16:42:08.391Z,74.17
2022-12-27T16:45:05.746Z,73.53
2022-12-27T16:47:54.680Z,72.56
2022-12-27T16:51:03.892Z,73.38
2022-12-27T16:54:00.831Z,73.30
2022-12-27T16:56:36.947Z,74.59
2022-12-27T17:00:11.400Z,74.23
2022-12-27T17:02:46.592Z,75.89
2022-12-27T17:05:16.142Z,76.48
2022-12-27T17:07:56.126Z,80.79
2022-12-27T17:10:50.920Z,82.00
2022-12-27T17:13:42.210Z,85.17
2022-12-27T17:16:30.451Z,86.97
2022-12-27T17:19:08.255Z,85.59
2022-12-27T17:21:40.758Z,85.87
2022-12-27T17:24:21.541Z,85.68
2022-12-27T17:27:24.480Z,84.56
2022-12-27T17:30:10.287Z,84.79
2022-12-27T17:33:38.100Z,86.06
2022-12-27T17:36:28.759Z,87.25
2022-12-27T17:39:44.549Z,87.32
2022-12-27T17:43:22.782Z,86.71
2022-12-27T17:46:19.889Z,87.88
2022-12-27T17:48:51.371Z,88.30
2022-12-27T17:51:29.586Z,87.24
2022-12-27T17:54:17.473Z,89.97
2022-12-27T17:57:18.954Z,88.99
2022-12-27T17:59:59.396Z,89.26
2022-12-27T18:02:37.271Z,92.27
2022-12-27T18:05:14.156Z,92.70
2022-12-27T18:07:45.053Z,91.69
2022-12-27T18:10:26.693Z,91.37
2022-12-27T18:13:02.175Z,89.45
2022-12-27T18:15:36.863Z,90.84
2022-12-27T18:18:09.270Z,90.70
2022-12-27T18:20:41.580Z,90.90
2022-12-27T18:23:12.026Z,93.60
2022-12-27T18:25:44.493Z,94.05
2022-12-27T18:28:34.371Z,93.35
2022-12-27T18:31:37.063Z,92.93
2022-12-27T18:34:24.810Z,92.72
2022-12-27T18:37:03.404Z,93.21
2022-12-27T18:39:42.454Z,92.91
2022-12-27T18:42:41.206Z,94.64
2022-12-27T18:45:33.607Z,95.21
2022-12-27T18:48:14.221Z,97.34
2022-12-27T18:50:53.175Z,96.13
2022-12-27T18:53:37.890Z,95.57
2022-12-27T18:56:23.646Z,93.70
2022-12-27T18:59:19.664Z,93.28
2022-12-27T19:01:50.022Z,92.40
2022-12-27T19:04:31.274Z,90.94
2022-12-27T19:07:13.940Z,90.42
2022-12-27T19:09:52.886Z,90.00
2022-12-27T19:12:40.443Z,92.28
2022-12-27T19:15:40.456Z,93.27
2022-12-27T19:18:39.082Z,92.69
2022-12-27T19:21:12.374Z,91.65
2022-12-27T19:23:49.188Z,91.98
2022-12-27T19:26:20.653Z,92.42
2022-12-27T19:29:17.726Z,92.86
2022-12-27T19:32:06.074Z,92.02
2022-12-27T19:34:48.549Z,92.93
2022-12-27T19:37:19.358Z,91.61
2022-12-27T19:39:49.531Z,92.11
2022-12-27T19:42:31.374Z,91.88
2022-12-27T19:45:00.993Z,91.08
2022-12-27T19:47:28.935Z,92.43
2022-12-27T19:49:58.506Z,92.52
2022-12-27T19:52:28.698Z,92.87
2022-12-27T19:55:08.894Z,93.12
2022-12-27T19:57:41.029Z,92.71
2022-12-27T20:00:18.912Z,94.03
2022-12-27T20:02:48.574Z,94.35
2022-12-27T20:05:18.221Z,93.44
2022-12-27T20:08:32.821Z,92.09
2022-12-27T20:11:07.070Z,90.96
2022-12-27T20:13:36.590Z,91.01
2022-12-27T20:16:07.006Z,90.42
2022-12-27T20:18:36.805Z,90.87
2022-12-27T20:21:06.496Z,91.19
2022-12-27T20:23:35.181Z,90.72
2022-12-27T20:26:03.844Z,91.00
2022-12-27T20:28:32.002Z,91.62
2022-12-27T20:31:08.574Z,90.76
2022-12-27T20:33:39.028Z,90.54
2022-12-27T20:36:09.757Z,91.63
2022-12-27T20:38:40.213Z,90.96
2022-12-27T20:41:17.631Z,91.09
2022-12-27T20:43:47.722Z,91.13
2022-12-27T20:46:18.903Z,91.50
2022-12-27T20:48:47.866Z,90.67
2022-12-27T20:51:27.528Z,91.66
2022-12-27T20:54:01.850Z,91.42
2022-12-27T20:56:31.544Z,90.27
2022-12-27T20:59:01.604Z,90.28
2022-12-27T21:01:31.118Z,89.18
2022-12-27T21:04:00.774Z,89.06
2022-12-27T21:06:30.795Z,89.20
2022-12-27T21:08:59.571Z,89.75
2022-12-27T21:11:32.829Z,89.05
2022-12-27T21:14:05.900Z,88.46
2022-12-27T21:16:36.469Z,88.60
2022-12-27T21:19:07.123Z,89.30
2022-12-27T21:21:38.695Z,89.15
2022-12-27T21:24:12.262Z,88.70
2022-12-27T21:26:42.048Z,88.73
2022-12-27T21:29:12.375Z,88.72
2022-12-27T21:31:42.615Z,88.22
2022-12-27T21:34:11.553Z,87.13
2022-12-27T21:36:39.958Z,87.21
2022-12-27T21:39:08.954Z,87.80
2022-12-27T21:41:40.563Z,87.92
2022-12-27T21:44:11.459Z,87.68
2022-12-27T21:46:43.819Z,87.48
2022-12-27T21:49:14.328Z,88.59
2022-12-27T21:51:45.148Z,89.18
2022-12-27T21:54:16.417Z,89.09
2022-12-27T21:56:46.027Z,88.97
2022-12-27T21:59:14.796Z,88.07
2022-12-27T22:01:50.123Z,87.74
2022-12-27T22:04:23.411Z,87.73
2022-12-27T22:06:52.918Z,87.43
2022-12-27T22:09:21.622Z,88.56
2022-12-27T22:11:50.857Z,88.01
2022-12-27T22:14:21.960Z,87.47
2022-12-27T22:16:53.790Z,86.82
2022-12-27T22:19:22.635Z,86.97
2022-12-27T22:21:52.045Z,87.03
2022-12-27T22:24:20.754Z,86.66
2022-12-27T22:26:50.454Z,87.10
2022-12-27T22:29:18.546Z,86.95
2022-12-27T22:31:47.332Z,87.36
2022-12-27T22:34:16.043Z,86.73
2022-12-27T22:36:44.715Z,85.57
2022-12-27T22:39:13.435Z,85.80
2022-12-27T22:41:42.107Z,86.51
2022-12-27T22:44:16.108Z,86.02
2022-12-27T22:47:24.561Z,86.07
2022-12-27T22:49:35.034Z,86.05
2022-12-27T22:52:03.906Z,85.88
2022-12-27T22:55:05.928Z,85.96
2022-12-27T22:57:23.383Z,85.82
2022-12-27T22:59:52.051Z,86.04
2022-12-27T23:02:21.554Z,86.24
2022-12-27T23:04:51.199Z,85.69
2022-12-27T23:07:21.208Z,85.97
2022-12-27T23:10:10.690Z,85.85
2022-12-27T23:12:40.122Z,86.54
2022-12-27T23:15:10.033Z,86.47
2022-12-27T23:17:38.694Z,86.17
2022-12-27T23:20:11.845Z,87.10
2022-12-27T23:22:41.306Z,87.00
2022-12-27T23:25:10.192Z,87.28
2022-12-27T23:27:39.649Z,87.58
2022-12-27T23:30:09.509Z,87.74
2022-12-27T23:32:38.284Z,88.03
2022-12-27T23:35:07.576Z,88.41
2022-12-27T23:37:36.280Z,87.74
2022-12-27T23:40:06.113Z,88.10
2022-12-27T23:42:33.831Z,88.11
2022-12-27T23:45:01.607Z,88.65
2022-12-27T23:47:30.338Z,88.13
2022-12-27T23:49:59.033Z,88.30
2022-12-27T23:52:27.691Z,88.44
2022-12-27T23:54:55.506Z,88.35
2022-12-27T23:57:25.377Z,88.11
2022-12-27T23:59:55.515Z,88.36
